sensor_id;sensor_type;location;lat;lon;timestamp;P1;durP1;ratioP1;P2;durP2;ratioP2
9330;SDS011;4704;50.470;12.072;2022-07-29T00:02:18;2.45;;;2.00;;
9330;SDS011;4704;50.470;12.072;2022-07-29T00:04:45;2.67;;;2.08;;
9330;SDS011;4704;50.470;12.072;2022-07-29T00:07:12;2.53;;;2.33;;
9330;SDS011;4704;50.470;12.072;2022-07-29T00:09:40;3.90;;;1.98;;
9330;SDS011;4704;50.470;12.072;2022-07-29T00:12:07;2.47;;;2.15;;
9330;SDS011;4704;50.470;12.072;2022-07-29T00:14:35;2.38;;;2.15;;
9330;SDS011;4704;50.470;12.072;2022-07-29T00:17:03;2.15;;;2.00;;
9330;SDS011;4704;50.470;12.072;2022-07-29T00:19:31;2.50;;;2.30;;
9330;SDS011;4704;50.470;12.072;2022-07-29T00:21:59;2.40;;;2.20;;
9330;SDS011;4704;50.470;12.072;2022-07-29T00:24:26;2.40;;;2.20;;
9330;SDS011;4704;50.470;12.072;2022-07-29T00:26:53;2.50;;;2.30;;
9330;SDS011;4704;50.470;12.072;2022-07-29T00:29:21;2.22;;;2.03;;
9330;SDS011;4704;50.470;12.072;2022-07-29T00:31:48;2.55;;;2.30;;
9330;SDS011;4704;50.470;12.072;2022-07-29T00:34:17;2.60;;;2.40;;
9330;SDS011;4704;50.470;12.072;2022-07-29T00:37:02;2.65;;;2.10;;
9330;SDS011;4704;50.470;12.072;2022-07-29T00:39:29;2.70;;;2.20;;
9330;SDS011;4704;50.470;12.072;2022-07-29T00:41:56;2.25;;;2.05;;
9330;SDS011;4704;50.470;12.072;2022-07-29T00:44:24;2.30;;;2.10;;
9330;SDS011;4704;50.470;12.072;2022-07-29T00:46:51;3.20;;;2.15;;
9330;SDS011;4704;50.470;12.072;2022-07-29T00:49:20;2.40;;;2.20;;
9330;SDS011;4704;50.470;12.072;2022-07-29T00:51:47;2.40;;;2.05;;
9330;SDS011;4704;50.470;12.072;2022-07-29T00:54:15;3.08;;;2.15;;
9330;SDS011;4704;50.470;12.072;2022-07-29T00:56:42;3.33;;;2.10;;
9330;SDS011;4704;50.470;12.072;2022-07-29T00:59:10;2.30;;;2.10;;
9330;SDS011;4704;50.470;12.072;2022-07-29T01:01:37;2.55;;;2.10;;
9330;SDS011;4704;50.470;12.072;2022-07-29T01:04:05;2.33;;;2.10;;
9330;SDS011;4704;50.470;12.072;2022-07-29T01:06:33;2.63;;;2.42;;
9330;SDS011;4704;50.470;12.072;2022-07-29T01:09:01;2.22;;;2.13;;
9330;SDS011;4704;50.470;12.072;2022-07-29T01:11:28;2.13;;;2.00;;
9330;SDS011;4704;50.470;12.072;2022-07-29T01:13:56;2.50;;;2.20;;
9330;SDS011;4704;50.470;12.072;2022-07-29T01:16:25;2.35;;;2.15;;
9330;SDS011;4704;50.470;12.072;2022-07-29T01:18:56;2.50;;;2.20;;
9330;SDS011;4704;50.470;12.072;2022-07-29T01:21:35;2.80;;;2.50;;
9330;SDS011;4704;50.470;12.072;2022-07-29T01:24:16;2.25;;;2.05;;
9330;SDS011;4704;50.470;12.072;2022-07-29T01:26:48;1.98;;;1.88;;
9330;SDS011;4704;50.470;12.072;2022-07-29T01:29:18;2.40;;;2.20;;
9330;SDS011;4704;50.470;12.072;2022-07-29T01:31:47;2.88;;;2.10;;
9330;SDS011;4704;50.470;12.072;2022-07-29T01:34:17;3.25;;;2.30;;
9330;SDS011;4704;50.470;12.072;2022-07-29T01:36:47;3.03;;;2.47;;
9330;SDS011;4704;50.470;12.072;2022-07-29T01:39:18;2.47;;;2.28;;
9330;SDS011;4704;50.470;12.072;2022-07-29T01:41:48;2.50;;;2.30;;
9330;SDS011;4704;50.470;12.072;2022-07-29T01:44:18;2.13;;;1.90;;
9330;SDS011;4704;50.470;12.072;2022-07-29T01:46:49;2.42;;;2.22;;
9330;SDS011;4704;50.470;12.072;2022-07-29T01:49:20;3.10;;;2.35;;
9330;SDS011;4704;50.470;12.072;2022-07-29T01:51:49;2.60;;;2.40;;
9330;SDS011;4704;50.470;12.072;2022-07-29T01:54:18;2.45;;;2.25;;
9330;SDS011;4704;50.470;12.072;2022-07-29T01:56:47;2.30;;;1.95;;
9330;SDS011;4704;50.470;12.072;2022-07-29T01:59:15;2.60;;;2.17;;
9330;SDS011;4704;50.470;12.072;2022-07-29T02:01:44;2.00;;;1.80;;
9330;SDS011;4704;50.470;12.072;2022-07-29T02:04:12;2.50;;;2.05;;
9330;SDS011;4704;50.470;12.072;2022-07-29T02:06:42;3.60;;;2.35;;
9330;SDS011;4704;50.470;12.072;2022-07-29T02:09:11;2.60;;;2.40;;
9330;SDS011;4704;50.470;12.072;2022-07-29T02:11:39;2.53;;;2.22;;
9330;SDS011;4704;50.470;12.072;2022-07-29T02:14:07;2.42;;;2.22;;
9330;SDS011;4704;50.470;12.072;2022-07-29T02:16:36;2.55;;;2.35;;
9330;SDS011;4704;50.470;12.072;2022-07-29T02:19:05;2.58;;;2.38;;
9330;SDS011;4704;50.470;12.072;2022-07-29T02:21:33;2.60;;;2.40;;
9330;SDS011;4704;50.470;12.072;2022-07-29T02:24:02;2.35;;;2.15;;
9330;SDS011;4704;50.470;12.072;2022-07-29T02:26:31;2.40;;;2.20;;
9330;SDS011;4704;50.470;12.072;2022-07-29T02:28:59;3.55;;;2.35;;
9330;SDS011;4704;50.470;12.072;2022-07-29T02:31:28;2.30;;;2.10;;
9330;SDS011;4704;50.470;12.072;2022-07-29T02:33:57;2.65;;;2.45;;
9330;SDS011;4704;50.470;12.072;2022-07-29T02:36:27;2.85;;;2.65;;
9330;SDS011;4704;50.470;12.072;2022-07-29T02:38:55;2.40;;;2.20;;
9330;SDS011;4704;50.470;12.072;2022-07-29T02:41:27;2.08;;;1.88;;
9330;SDS011;4704;50.470;12.072;2022-07-29T02:43:56;2.22;;;2.03;;
9330;SDS011;4704;50.470;12.072;2022-07-29T02:46:26;2.40;;;2.20;;
9330;SDS011;4704;50.470;12.072;2022-07-29T02:48:55;2.42;;;2.22;;
9330;SDS011;4704;50.470;12.072;2022-07-29T02:51:25;3.15;;;2.50;;
9330;SDS011;4704;50.470;12.072;2022-07-29T02:53:56;2.75;;;2.30;;
9330;SDS011;4704;50.470;12.072;2022-07-29T02:56:25;2.30;;;2.10;;
9330;SDS011;4704;50.470;12.072;2022-07-29T02:58:53;2.38;;;2.17;;
9330;SDS011;4704;50.470;12.072;2022-07-29T03:01:22;2.47;;;2.28;;
9330;SDS011;4704;50.470;12.072;2022-07-29T03:03:50;2.38;;;2.17;;
9330;SDS011;4704;50.470;12.072;2022-07-29T03:06:19;3.22;;;2.38;;
9330;SDS011;4704;50.470;12.072;2022-07-29T03:08:46;2.58;;;2.38;;
9330;SDS011;4704;50.470;12.072;2022-07-29T03:11:15;2.25;;;2.05;;
9330;SDS011;4704;50.470;12.072;2022-07-29T03:13:43;2.50;;;2.22;;
9330;SDS011;4704;50.470;12.072;2022-07-29T03:16:11;2.35;;;2.15;;
9330;SDS011;4704;50.470;12.072;2022-07-29T03:18:39;2.55;;;2.35;;
9330;SDS011;4704;50.470;12.072;2022-07-29T03:21:07;2.53;;;2.30;;
9330;SDS011;4704;50.470;12.072;2022-07-29T03:23:35;2.55;;;2.35;;
9330;SDS011;4704;50.470;12.072;2022-07-29T03:26:02;3.08;;;2.38;;
9330;SDS011;4704;50.470;12.072;2022-07-29T03:28:31;2.80;;;2.25;;
9330;SDS011;4704;50.470;12.072;2022-07-29T03:30:59;3.67;;;2.55;;
9330;SDS011;4704;50.470;12.072;2022-07-29T03:33:26;2.50;;;2.30;;
9330;SDS011;4704;50.470;12.072;2022-07-29T03:35:55;2.63;;;2.30;;
9330;SDS011;4704;50.470;12.072;2022-07-29T03:38:23;3.30;;;2.10;;
9330;SDS011;4704;50.470;12.072;2022-07-29T03:40:53;2.83;;;2.63;;
9330;SDS011;4704;50.470;12.072;2022-07-29T03:43:21;2.88;;;2.55;;
9330;SDS011;4704;50.470;12.072;2022-07-29T03:45:51;2.63;;;2.42;;
9330;SDS011;4704;50.470;12.072;2022-07-29T03:48:20;3.70;;;2.40;;
9330;SDS011;4704;50.470;12.072;2022-07-29T03:50:49;4.53;;;2.45;;
9330;SDS011;4704;50.470;12.072;2022-07-29T03:53:16;2.67;;;2.33;;
9330;SDS011;4704;50.470;12.072;2022-07-29T03:55:45;2.60;;;2.30;;
9330;SDS011;4704;50.470;12.072;2022-07-29T03:58:13;2.83;;;2.40;;
9330;SDS011;4704;50.470;12.072;2022-07-29T04:00:41;2.78;;;2.58;;
9330;SDS011;4704;50.470;12.072;2022-07-29T04:03:10;2.97;;;2.67;;
9330;SDS011;4704;50.470;12.072;2022-07-29T04:05:38;2.85;;;2.60;;
9330;SDS011;4704;50.470;12.072;2022-07-29T04:08:05;2.63;;;2.42;;
9330;SDS011;4704;50.470;12.072;2022-07-29T04:10:33;2.40;;;2.20;;
9330;SDS011;4704;50.470;12.072;2022-07-29T04:13:00;2.67;;;2.42;;
9330;SDS011;4704;50.470;12.072;2022-07-29T04:15:28;2.63;;;2.42;;
9330;SDS011;4704;50.470;12.072;2022-07-29T04:17:55;3.13;;;2.40;;
9330;SDS011;4704;50.470;12.072;2022-07-29T04:20:23;2.63;;;2.42;;
9330;SDS011;4704;50.470;12.072;2022-07-29T04:22:51;2.60;;;2.40;;
9330;SDS011;4704;50.470;12.072;2022-07-29T04:25:18;2.55;;;2.35;;
9330;SDS011;4704;50.470;12.072;2022-07-29T04:27:46;2.55;;;2.35;;
9330;SDS011;4704;50.470;12.072;2022-07-29T04:30:29;2.63;;;2.42;;
9330;SDS011;4704;50.470;12.072;2022-07-29T04:32:56;3.72;;;2.45;;
9330;SDS011;4704;50.470;12.072;2022-07-29T04:35:25;2.58;;;2.38;;
9330;SDS011;4704;50.470;12.072;2022-07-29T04:37:52;2.65;;;2.45;;
9330;SDS011;4704;50.470;12.072;2022-07-29T04:40:20;3.20;;;2.90;;
9330;SDS011;4704;50.470;12.072;2022-07-29T04:42:47;2.55;;;2.35;;
9330;SDS011;4704;50.470;12.072;2022-07-29T04:45:14;2.58;;;2.38;;
9330;SDS011;4704;50.470;12.072;2022-07-29T04:47:42;2.60;;;2.40;;
9330;SDS011;4704;50.470;12.072;2022-07-29T04:50:09;2.45;;;2.25;;
9330;SDS011;4704;50.470;12.072;2022-07-29T04:52:38;2.75;;;2.47;;
9330;SDS011;4704;50.470;12.072;2022-07-29T04:55:06;2.70;;;2.50;;
9330;SDS011;4704;50.470;12.072;2022-07-29T04:57:33;2.60;;;2.40;;
9330;SDS011;4704;50.470;12.072;2022-07-29T05:00:01;2.75;;;2.53;;
9330;SDS011;4704;50.470;12.072;2022-07-29T05:02:28;2.70;;;2.50;;
9330;SDS011;4704;50.470;12.072;2022-07-29T05:04:55;2.63;;;2.42;;
9330;SDS011;4704;50.470;12.072;2022-07-29T05:07:23;2.28;;;2.17;;
9330;SDS011;4704;50.470;12.072;2022-07-29T05:09:52;2.67;;;2.42;;
9330;SDS011;4704;50.470;12.072;2022-07-29T05:12:21;3.05;;;2.72;;
9330;SDS011;4704;50.470;12.072;2022-07-29T05:14:49;2.38;;;2.10;;
9330;SDS011;4704;50.470;12.072;2022-07-29T05:17:16;2.63;;;2.42;;
9330;SDS011;4704;50.470;12.072;2022-07-29T05:19:43;3.47;;;2.50;;
9330;SDS011;4704;50.470;12.072;2022-07-29T05:22:11;2.70;;;2.50;;
9330;SDS011;4704;50.470;12.072;2022-07-29T05:24:38;2.50;;;2.30;;
9330;SDS011;4704;50.470;12.072;2022-07-29T05:27:07;2.58;;;2.38;;
9330;SDS011;4704;50.470;12.072;2022-07-29T05:29:34;2.50;;;2.30;;
9330;SDS011;4704;50.470;12.072;2022-07-29T05:32:02;3.00;;;2.80;;
9330;SDS011;4704;50.470;12.072;2022-07-29T05:34:29;2.50;;;2.30;;
9330;SDS011;4704;50.470;12.072;2022-07-29T05:36:56;2.40;;;2.20;;
9330;SDS011;4704;50.470;12.072;2022-07-29T05:39:24;2.80;;;2.60;;
9330;SDS011;4704;50.470;12.072;2022-07-29T05:41:51;2.85;;;2.40;;
9330;SDS011;4704;50.470;12.072;2022-07-29T05:44:20;3.03;;;2.80;;
9330;SDS011;4704;50.470;12.072;2022-07-29T05:46:47;2.83;;;2.63;;
9330;SDS011;4704;50.470;12.072;2022-07-29T05:49:14;3.45;;;3.10;;
9330;SDS011;4704;50.470;12.072;2022-07-29T05:51:42;2.47;;;2.28;;
9330;SDS011;4704;50.470;12.072;2022-07-29T05:54:09;3.30;;;2.85;;
9330;SDS011;4704;50.470;12.072;2022-07-29T05:56:36;2.70;;;2.50;;
9330;SDS011;4704;50.470;12.072;2022-07-29T05:59:04;2.90;;;2.55;;
9330;SDS011;4704;50.470;12.072;2022-07-29T06:01:32;3.00;;;2.80;;
9330;SDS011;4704;50.470;12.072;2022-07-29T06:04:04;3.40;;;3.10;;
9330;SDS011;4704;50.470;12.072;2022-07-29T06:06:31;3.13;;;2.83;;
9330;SDS011;4704;50.470;12.072;2022-07-29T06:08:58;2.95;;;2.75;;
9330;SDS011;4704;50.470;12.072;2022-07-29T06:11:26;3.10;;;2.90;;
9330;SDS011;4704;50.470;12.072;2022-07-29T06:13:54;3.00;;;2.70;;
9330;SDS011;4704;50.470;12.072;2022-07-29T06:16:21;3.72;;;2.92;;
9330;SDS011;4704;50.470;12.072;2022-07-29T06:18:50;3.30;;;3.00;;
9330;SDS011;4704;50.470;12.072;2022-07-29T06:21:17;2.90;;;2.60;;
9330;SDS011;4704;50.470;12.072;2022-07-29T06:23:44;2.80;;;2.60;;
9330;SDS011;4704;50.470;12.072;2022-07-29T06:26:11;2.92;;;2.65;;
9330;SDS011;4704;50.470;12.072;2022-07-29T06:28:39;2.95;;;2.75;;
9330;SDS011;4704;50.470;12.072;2022-07-29T06:31:06;3.22;;;2.95;;
9330;SDS011;4704;50.470;12.072;2022-07-29T06:33:34;3.13;;;2.92;;
9330;SDS011;4704;50.470;12.072;2022-07-29T06:36:04;3.17;;;2.90;;
9330;SDS011;4704;50.470;12.072;2022-07-29T06:38:32;3.05;;;2.78;;
9330;SDS011;4704;50.470;12.072;2022-07-29T06:41:00;2.92;;;2.72;;
9330;SDS011;4704;50.470;12.072;2022-07-29T06:43:28;2.95;;;2.65;;
9330;SDS011;4704;50.470;12.072;2022-07-29T06:45:57;2.97;;;2.75;;
9330;SDS011;4704;50.470;12.072;2022-07-29T06:48:25;3.03;;;2.80;;
9330;SDS011;4704;50.470;12.072;2022-07-29T06:50:52;3.30;;;3.00;;
9330;SDS011;4704;50.470;12.072;2022-07-29T06:53:21;3.00;;;2.80;;
9330;SDS011;4704;50.470;12.072;2022-07-29T06:55:48;3.00;;;2.80;;
9330;SDS011;4704;50.470;12.072;2022-07-29T06:58:16;3.50;;;3.03;;
9330;SDS011;4704;50.470;12.072;2022-07-29T07:00:45;3.90;;;2.90;;
9330;SDS011;4704;50.470;12.072;2022-07-29T07:03:13;3.55;;;2.92;;
9330;SDS011;4704;50.470;12.072;2022-07-29T07:05:40;2.70;;;2.50;;
9330;SDS011;4704;50.470;12.072;2022-07-29T07:08:08;2.83;;;2.60;;
9330;SDS011;4704;50.470;12.072;2022-07-29T07:10:36;3.00;;;2.70;;
9330;SDS011;4704;50.470;12.072;2022-07-29T07:13:04;3.70;;;2.90;;
9330;SDS011;4704;50.470;12.072;2022-07-29T07:15:31;2.80;;;2.50;;
9330;SDS011;4704;50.470;12.072;2022-07-29T07:17:58;3.35;;;2.92;;
9330;SDS011;4704;50.470;12.072;2022-07-29T07:20:26;4.00;;;2.90;;
9330;SDS011;4704;50.470;12.072;2022-07-29T07:22:53;3.03;;;2.78;;
9330;SDS011;4704;50.470;12.072;2022-07-29T07:25:22;2.78;;;2.58;;
9330;SDS011;4704;50.470;12.072;2022-07-29T07:27:50;4.15;;;3.08;;
9330;SDS011;4704;50.470;12.072;2022-07-29T07:30:17;3.00;;;2.70;;
9330;SDS011;4704;50.470;12.072;2022-07-29T07:32:45;3.00;;;2.80;;
9330;SDS011;4704;50.470;12.072;2022-07-29T07:35:13;3.20;;;2.90;;
9330;SDS011;4704;50.470;12.072;2022-07-29T07:37:40;2.97;;;2.60;;
9330;SDS011;4704;50.470;12.072;2022-07-29T07:40:08;3.17;;;2.97;;
9330;SDS011;4704;50.470;12.072;2022-07-29T07:42:36;3.03;;;2.80;;
9330;SDS011;4704;50.470;12.072;2022-07-29T07:45:05;3.10;;;2.80;;
9330;SDS011;4704;50.470;12.072;2022-07-29T07:47:34;3.00;;;2.70;;
9330;SDS011;4704;50.470;12.072;2022-07-29T07:50:03;3.08;;;2.80;;
9330;SDS011;4704;50.470;12.072;2022-07-29T07:52:30;3.10;;;2.80;;
9330;SDS011;4704;50.470;12.072;2022-07-29T07:54:58;3.42;;;2.67;;
9330;SDS011;4704;50.470;12.072;2022-07-29T07:57:26;2.78;;;2.58;;
9330;SDS011;4704;50.470;12.072;2022-07-29T07:59:53;3.05;;;2.78;;
9330;SDS011;4704;50.470;12.072;2022-07-29T08:02:22;3.15;;;2.85;;
9330;SDS011;4704;50.470;12.072;2022-07-29T08:04:49;3.10;;;2.65;;
9330;SDS011;4704;50.470;12.072;2022-07-29T08:07:17;2.60;;;2.40;;
9330;SDS011;4704;50.470;12.072;2022-07-29T08:09:44;2.75;;;2.55;;
9330;SDS011;4704;50.470;12.072;2022-07-29T08:12:11;3.05;;;2.75;;
9330;SDS011;4704;50.470;12.072;2022-07-29T08:14:38;3.42;;;2.88;;
9330;SDS011;4704;50.470;12.072;2022-07-29T08:17:06;3.05;;;2.85;;
9330;SDS011;4704;50.470;12.072;2022-07-29T08:19:35;2.60;;;2.40;;
9330;SDS011;4704;50.470;12.072;2022-07-29T08:22:03;3.05;;;2.72;;
9330;SDS011;4704;50.470;12.072;2022-07-29T08:24:30;3.10;;;2.70;;
9330;SDS011;4704;50.470;12.072;2022-07-29T08:27:17;3.58;;;2.50;;
9330;SDS011;4704;50.470;12.072;2022-07-29T08:29:44;2.92;;;2.65;;
9330;SDS011;4704;50.470;12.072;2022-07-29T08:32:12;2.88;;;2.67;;
9330;SDS011;4704;50.470;12.072;2022-07-29T08:34:41;2.60;;;2.40;;
9330;SDS011;4704;50.470;12.072;2022-07-29T08:37:11;2.70;;;2.50;;
9330;SDS011;4704;50.470;12.072;2022-07-29T08:39:38;2.80;;;2.60;;
9330;SDS011;4704;50.470;12.072;2022-07-29T08:42:06;3.05;;;2.80;;
9330;SDS011;4704;50.470;12.072;2022-07-29T08:44:35;2.72;;;2.50;;
9330;SDS011;4704;50.470;12.072;2022-07-29T08:47:03;3.20;;;2.60;;
9330;SDS011;4704;50.470;12.072;2022-07-29T08:49:32;2.53;;;2.30;;
9330;SDS011;4704;50.470;12.072;2022-07-29T08:52:02;2.65;;;2.45;;
9330;SDS011;4704;50.470;12.072;2022-07-29T08:54:29;2.97;;;2.78;;
9330;SDS011;4704;50.470;12.072;2022-07-29T08:56:57;2.92;;;2.40;;
9330;SDS011;4704;50.470;12.072;2022-07-29T08:59:26;2.70;;;2.50;;
9330;SDS011;4704;50.470;12.072;2022-07-29T09:01:54;3.42;;;2.63;;
9330;SDS011;4704;50.470;12.072;2022-07-29T09:04:22;3.00;;;2.70;;
9330;SDS011;4704;50.470;12.072;2022-07-29T09:06:51;3.42;;;2.67;;
9330;SDS011;4704;50.470;12.072;2022-07-29T09:09:21;2.30;;;2.20;;
9330;SDS011;4704;50.470;12.072;2022-07-29T09:11:49;2.95;;;2.60;;
9330;SDS011;4704;50.470;12.072;2022-07-29T09:14:18;2.50;;;2.30;;
9330;SDS011;4704;50.470;12.072;2022-07-29T09:16:46;2.50;;;2.30;;
9330;SDS011;4704;50.470;12.072;2022-07-29T09:19:20;2.70;;;2.50;;
9330;SDS011;4704;50.470;12.072;2022-07-29T09:21:48;2.60;;;2.40;;
9330;SDS011;4704;50.470;12.072;2022-07-29T09:24:26;2.97;;;2.47;;
9330;SDS011;4704;50.470;12.072;2022-07-29T09:26:54;4.43;;;2.40;;
9330;SDS011;4704;50.470;12.072;2022-07-29T09:29:23;2.70;;;2.50;;
9330;SDS011;4704;50.470;12.072;2022-07-29T09:31:51;2.63;;;2.42;;
9330;SDS011;4704;50.470;12.072;2022-07-29T09:34:21;2.80;;;2.60;;
9330;SDS011;4704;50.470;12.072;2022-07-29T09:36:49;2.88;;;2.67;;
9330;SDS011;4704;50.470;12.072;2022-07-29T09:39:27;3.22;;;2.70;;
9330;SDS011;4704;50.470;12.072;2022-07-29T09:41:56;2.78;;;2.58;;
9330;SDS011;4704;50.470;12.072;2022-07-29T09:44:24;2.60;;;2.40;;
9330;SDS011;4704;50.470;12.072;2022-07-29T09:46:55;2.90;;;2.70;;
9330;SDS011;4704;50.470;12.072;2022-07-29T09:49:23;2.83;;;2.63;;
9330;SDS011;4704;50.470;12.072;2022-07-29T09:51:59;3.00;;;2.70;;
9330;SDS011;4704;50.470;12.072;2022-07-29T09:54:28;3.00;;;2.80;;
9330;SDS011;4704;50.470;12.072;2022-07-29T09:57:01;2.85;;;2.63;;
9330;SDS011;4704;50.470;12.072;2022-07-29T09:59:29;2.95;;;2.75;;
9330;SDS011;4704;50.470;12.072;2022-07-29T10:01:56;2.60;;;2.40;;
9330;SDS011;4704;50.470;12.072;2022-07-29T10:04:23;3.20;;;2.90;;
9330;SDS011;4704;50.470;12.072;2022-07-29T10:06:57;3.03;;;2.70;;
9330;SDS011;4704;50.470;12.072;2022-07-29T10:09:25;2.80;;;2.60;;
9330;SDS011;4704;50.470;12.072;2022-07-29T10:12:07;2.97;;;2.78;;
9330;SDS011;4704;50.470;12.072;2022-07-29T10:14:35;2.80;;;2.60;;
9330;SDS011;4704;50.470;12.072;2022-07-29T10:17:03;3.10;;;2.80;;
9330;SDS011;4704;50.470;12.072;2022-07-29T10:19:31;2.60;;;2.40;;
9330;SDS011;4704;50.470;12.072;2022-07-29T10:21:59;3.30;;;3.00;;
9330;SDS011;4704;50.470;12.072;2022-07-29T10:24:27;3.30;;;3.00;;
9330;SDS011;4704;50.470;12.072;2022-07-29T10:26:55;3.22;;;2.92;;
9330;SDS011;4704;50.470;12.072;2022-07-29T10:29:25;3.00;;;2.80;;
9330;SDS011;4704;50.470;12.072;2022-07-29T10:31:57;3.72;;;3.42;;
9330;SDS011;4704;50.470;12.072;2022-07-29T10:34:31;3.60;;;3.30;;
9330;SDS011;4704;50.470;12.072;2022-07-29T10:37:03;3.20;;;3.00;;
9330;SDS011;4704;50.470;12.072;2022-07-29T10:39:38;3.33;;;3.13;;
9330;SDS011;4704;50.470;12.072;2022-07-29T10:42:14;3.13;;;2.92;;
9330;SDS011;4704;50.470;12.072;2022-07-29T10:44:45;3.38;;;3.10;;
9330;SDS011;4704;50.470;12.072;2022-07-29T10:47:20;3.53;;;3.30;;
9330;SDS011;4704;50.470;12.072;2022-07-29T10:49:57;3.63;;;3.35;;
9330;SDS011;4704;50.470;12.072;2022-07-29T10:52:25;3.00;;;2.80;;
9330;SDS011;4704;50.470;12.072;2022-07-29T11:00:37;3.05;;;2.85;;
9330;SDS011;4704;50.470;12.072;2022-07-29T11:03:04;3.75;;;3.45;;
9330;SDS011;4704;50.470;12.072;2022-07-29T11:05:50;3.22;;;3.03;;
9330;SDS011;4704;50.470;12.072;2022-07-29T11:08:22;3.28;;;3.08;;
9330;SDS011;4704;50.470;12.072;2022-07-29T11:10:51;3.85;;;3.25;;
9330;SDS011;4704;50.470;12.072;2022-07-29T11:16:05;3.20;;;3.00;;
9330;SDS011;4704;50.470;12.072;2022-07-29T11:18:33;3.35;;;3.15;;
9330;SDS011;4704;50.470;12.072;2022-07-29T11:21:00;3.28;;;3.03;;
9330;SDS011;4704;50.470;12.072;2022-07-29T11:23:28;3.50;;;3.30;;
9330;SDS011;4704;50.470;12.072;2022-07-29T11:28:56;3.47;;;3.20;;
9330;SDS011;4704;50.470;12.072;2022-07-29T11:31:37;3.45;;;3.15;;
9330;SDS011;4704;50.470;12.072;2022-07-29T11:34:16;3.33;;;3.13;;
9330;SDS011;4704;50.470;12.072;2022-07-29T11:39:30;3.95;;;3.65;;
9330;SDS011;4704;50.470;12.072;2022-07-29T11:42:08;3.60;;;3.30;;
9330;SDS011;4704;50.470;12.072;2022-07-29T11:44:55;3.92;;;3.63;;
9330;SDS011;4704;50.470;12.072;2022-07-29T11:47:24;3.50;;;3.20;;
9330;SDS011;4704;50.470;12.072;2022-07-29T11:49:52;4.00;;;3.70;;
9330;SDS011;4704;50.470;12.072;2022-07-29T11:52:20;3.90;;;3.60;;
9330;SDS011;4704;50.470;12.072;2022-07-29T11:54:49;3.63;;;3.42;;
9330;SDS011;4704;50.470;12.072;2022-07-29T11:57:16;3.80;;;3.50;;
9330;SDS011;4704;50.470;12.072;2022-07-29T11:59:44;3.50;;;3.30;;
9330;SDS011;4704;50.470;12.072;2022-07-29T12:02:12;4.03;;;3.70;;
9330;SDS011;4704;50.470;12.072;2022-07-29T12:04:49;3.50;;;3.30;;
9330;SDS011;4704;50.470;12.072;2022-07-29T12:07:16;3.95;;;3.65;;
9330;SDS011;4704;50.470;12.072;2022-07-29T12:09:48;3.67;;;3.38;;
9330;SDS011;4704;50.470;12.072;2022-07-29T12:12:16;3.85;;;3.60;;
9330;SDS011;4704;50.470;12.072;2022-07-29T12:14:44;4.10;;;3.72;;
9330;SDS011;4704;50.470;12.072;2022-07-29T12:17:24;3.90;;;3.60;;
9330;SDS011;4704;50.470;12.072;2022-07-29T12:19:54;3.63;;;3.42;;
9330;SDS011;4704;50.470;12.072;2022-07-29T12:22:26;3.90;;;3.60;;
9330;SDS011;4704;50.470;12.072;2022-07-29T12:24:54;3.40;;;3.20;;
9330;SDS011;4704;50.470;12.072;2022-07-29T12:27:21;3.67;;;3.38;;
9330;SDS011;4704;50.470;12.072;2022-07-29T12:29:55;3.60;;;3.40;;
9330;SDS011;4704;50.470;12.072;2022-07-29T12:32:22;3.80;;;3.50;;
9330;SDS011;4704;50.470;12.072;2022-07-29T12:34:50;3.67;;;3.38;;
9330;SDS011;4704;50.470;12.072;2022-07-29T12:37:18;3.38;;;3.17;;
9330;SDS011;4704;50.470;12.072;2022-07-29T12:39:46;4.07;;;3.78;;
9330;SDS011;4704;50.470;12.072;2022-07-29T12:42:14;3.65;;;3.45;;
9330;SDS011;4704;50.470;12.072;2022-07-29T12:44:43;3.55;;;3.35;;
9330;SDS011;4704;50.470;12.072;2022-07-29T12:47:11;3.92;;;3.63;;
9330;SDS011;4704;50.470;12.072;2022-07-29T12:49:38;3.58;;;3.38;;
9330;SDS011;4704;50.470;12.072;2022-07-29T12:54:49;3.70;;;3.40;;
9330;SDS011;4704;50.470;12.072;2022-07-29T12:57:17;3.78;;;3.47;;
9330;SDS011;4704;50.470;12.072;2022-07-29T12:59:44;3.70;;;3.35;;
9330;SDS011;4704;50.470;12.072;2022-07-29T13:02:20;3.63;;;3.38;;
9330;SDS011;4704;50.470;12.072;2022-07-29T13:04:54;3.90;;;3.60;;
9330;SDS011;4704;50.470;12.072;2022-07-29T13:07:24;3.42;;;3.22;;
9330;SDS011;4704;50.470;12.072;2022-07-29T13:09:53;3.55;;;3.25;;
9330;SDS011;4704;50.470;12.072;2022-07-29T13:12:20;3.67;;;3.33;;
9330;SDS011;4704;50.470;12.072;2022-07-29T13:14:48;4.20;;;3.90;;
9330;SDS011;4704;50.470;12.072;2022-07-29T13:17:16;3.60;;;3.35;;
9330;SDS011;4704;50.470;12.072;2022-07-29T13:19:44;3.90;;;3.60;;
9330;SDS011;4704;50.470;12.072;2022-07-29T13:22:13;4.68;;;3.95;;
9330;SDS011;4704;50.470;12.072;2022-07-29T13:24:50;5.45;;;3.63;;
9330;SDS011;4704;50.470;12.072;2022-07-29T13:27:19;4.07;;;3.50;;
9330;SDS011;4704;50.470;12.072;2022-07-29T13:29:47;3.67;;;3.38;;
9330;SDS011;4704;50.470;12.072;2022-07-29T13:32:16;4.10;;;3.80;;
9330;SDS011;4704;50.470;12.072;2022-07-29T13:34:43;4.65;;;3.92;;
9330;SDS011;4704;50.470;12.072;2022-07-29T13:37:10;4.80;;;3.88;;
9330;SDS011;4704;50.470;12.072;2022-07-29T13:39:38;4.18;;;3.83;;
9330;SDS011;4704;50.470;12.072;2022-07-29T13:42:06;4.00;;;3.70;;
9330;SDS011;4704;50.470;12.072;2022-07-29T13:44:36;4.22;;;3.90;;
9330;SDS011;4704;50.470;12.072;2022-07-29T13:47:03;3.97;;;3.65;;
9330;SDS011;4704;50.470;12.072;2022-07-29T13:49:30;3.88;;;3.53;;
9330;SDS011;4704;50.470;12.072;2022-07-29T13:51:57;3.80;;;3.45;;
9330;SDS011;4704;50.470;12.072;2022-07-29T13:54:25;4.40;;;3.60;;
9330;SDS011;4704;50.470;12.072;2022-07-29T13:56:52;4.30;;;3.60;;
9330;SDS011;4704;50.470;12.072;2022-07-29T13:59:20;3.83;;;3.53;;
9330;SDS011;4704;50.470;12.072;2022-07-29T14:01:48;3.60;;;3.40;;
9330;SDS011;4704;50.470;12.072;2022-07-29T14:04:16;4.07;;;3.70;;
9330;SDS011;4704;50.470;12.072;2022-07-29T14:06:43;3.83;;;3.53;;
9330;SDS011;4704;50.470;12.072;2022-07-29T14:09:11;3.80;;;3.50;;
9330;SDS011;4704;50.470;12.072;2022-07-29T14:11:38;3.80;;;3.50;;
9330;SDS011;4704;50.470;12.072;2022-07-29T14:14:05;3.67;;;3.38;;
9330;SDS011;4704;50.470;12.072;2022-07-29T14:16:33;3.53;;;3.22;;
9330;SDS011;4704;50.470;12.072;2022-07-29T14:19:01;3.70;;;3.40;;
9330;SDS011;4704;50.470;12.072;2022-07-29T14:21:29;4.03;;;3.40;;
9330;SDS011;4704;50.470;12.072;2022-07-29T14:23:56;3.40;;;3.10;;
9330;SDS011;4704;50.470;12.072;2022-07-29T14:26:24;3.63;;;3.33;;
9330;SDS011;4704;50.470;12.072;2022-07-29T14:28:51;3.42;;;3.20;;
9330;SDS011;4704;50.470;12.072;2022-07-29T14:31:18;3.50;;;3.20;;
9330;SDS011;4704;50.470;12.072;2022-07-29T14:33:45;3.35;;;3.03;;
9330;SDS011;4704;50.470;12.072;2022-07-29T14:36:14;3.30;;;3.00;;
9330;SDS011;4704;50.470;12.072;2022-07-29T14:38:42;3.65;;;3.10;;
9330;SDS011;4704;50.470;12.072;2022-07-29T14:41:09;3.33;;;3.13;;
9330;SDS011;4704;50.470;12.072;2022-07-29T14:43:36;3.85;;;3.47;;
9330;SDS011;4704;50.470;12.072;2022-07-29T14:46:04;3.35;;;3.05;;
9330;SDS011;4704;50.470;12.072;2022-07-29T14:48:32;3.05;;;2.85;;
9330;SDS011;4704;50.470;12.072;2022-07-29T14:51:00;3.55;;;3.25;;
9330;SDS011;4704;50.470;12.072;2022-07-29T14:53:29;3.60;;;3.30;;
9330;SDS011;4704;50.470;12.072;2022-07-29T14:55:56;3.00;;;2.80;;
9330;SDS011;4704;50.470;12.072;2022-07-29T14:58:23;3.22;;;2.90;;
9330;SDS011;4704;50.470;12.072;2022-07-29T15:00:50;3.38;;;3.08;;
9330;SDS011;4704;50.470;12.072;2022-07-29T15:03:20;3.10;;;2.90;;
9330;SDS011;4704;50.470;12.072;2022-07-29T15:05:48;3.20;;;3.00;;
9330;SDS011;4704;50.470;12.072;2022-07-29T15:08:15;3.50;;;3.13;;
9330;SDS011;4704;50.470;12.072;2022-07-29T15:10:44;3.03;;;2.72;;
9330;SDS011;4704;50.470;12.072;2022-07-29T15:13:12;3.00;;;2.80;;
9330;SDS011;4704;50.470;12.072;2022-07-29T15:15:39;2.92;;;2.72;;
9330;SDS011;4704;50.470;12.072;2022-07-29T15:18:07;2.70;;;2.50;;
9330;SDS011;4704;50.470;12.072;2022-07-29T15:20:34;3.10;;;2.80;;
9330;SDS011;4704;50.470;12.072;2022-07-29T15:23:01;2.83;;;2.60;;
9330;SDS011;4704;50.470;12.072;2022-07-29T15:25:29;2.97;;;2.75;;
9330;SDS011;4704;50.470;12.072;2022-07-29T15:27:59;2.90;;;2.70;;